Time;durP1;ratioP1;P1;durP2;ratioP2;P2;SDS_P1;SDS_P2;PMS_P1;PMS_P2;Temp;Humidity;BMP_temperature;BMP_pressure;BME280_temperature;BME280_humidity;BME280_pressure;Samples;Min_cycle;Max_cycle;Signal;HPM_P1;HPM_P2
2023/08/23 00:02:31;;;;;;;21.80;9.60;;;;;;;29.57;53.01;98940.71;67301;1291;1018162;-60
2023/08/23 00:05:33;;;;;;;22.00;9.50;;;;;;;29.97;51.29;98932.48;67292;1291;1016427;-61
2023/08/23 00:08:36;;;;;;;22.00;9.40;;;;;;;29.85;51.46;98923.89;67272;1291;1016503;-59
2023/08/23 00:11:38;;;;;;;22.00;9.10;;;;;;;29.87;51.41;98926.71;67591;1283;1016485;-60
2023/08/23 00:14:40;;;;;;;21.30;8.70;;;;;;;29.78;51.34;98920.39;67540;1283;1016347;-60
2023/08/23 00:17:43;;;;;;;23.10;9.70;;;;;;;29.72;51.78;98927.48;67550;1269;1016406;-61
2023/08/23 00:20:45;;;;;;;21.80;9.40;;;;;;;29.67;51.77;98941.20;67521;1283;1016495;-60
2023/08/23 00:23:48;;;;;;;19.30;8.80;;;;;;;29.33;52.30;98949.73;67579;1283;1016449;-60
2023/08/23 00:26:50;;;;;;;21.80;10.00;;;;;;;29.15;52.41;98947.08;67575;1283;1016796;-60
2023/08/23 00:29:52;;;;;;;22.40;9.10;;;;;;;29.09;52.57;98944.05;67498;1283;1016511;-60
2023/08/23 00:32:55;;;;;;;23.40;10.30;;;;;;;29.09;52.77;98942.13;67534;1283;1016285;-61
2023/08/23 00:35:57;;;;;;;21.60;9.30;;;;;;;29.23;52.25;98936.75;67546;1283;1016730;-59
2023/08/23 00:39:00;;;;;;;23.70;9.60;;;;;;;29.31;52.07;98935.96;67573;1282;1016189;-60
2023/08/23 00:42:03;;;;;;;23.60;9.70;;;;;;;29.29;52.24;98940.98;67584;1283;1016462;-60
2023/08/23 00:45:05;;;;;;;25.00;9.90;;;;;;;29.24;52.24;98937.54;67541;1283;1016452;-61
2023/08/23 00:48:08;;;;;;;24.40;10.00;;;;;;;29.27;52.04;98928.27;67529;1283;1016247;-60
2023/08/23 00:51:10;;;;;;;22.40;10.30;;;;;;;29.43;51.99;98922.33;67545;1283;1016010;-60
2023/08/23 00:54:12;;;;;;;23.80;11.10;;;;;;;29.60;51.97;98919.71;67595;1283;1016517;-60
2023/08/23 00:57:15;;;;;;;24.50;12.10;;;;;;;29.65;51.45;98917.77;67590;1283;1016330;-60
2023/08/23 01:00:17;;;;;;;26.40;12.50;;;;;;;29.42;52.03;98913.02;67555;1283;1016019;-60
2023/08/23 01:03:20;;;;;;;24.10;11.70;;;;;;;29.25;52.14;98916.13;67539;1283;1016407;-60
2023/08/23 01:06:22;;;;;;;26.80;12.70;;;;;;;29.20;52.45;98918.35;67586;1283;1015918;-61
2023/08/23 01:09:24;;;;;;;25.40;12.30;;;;;;;29.49;51.79;98913.36;67596;1282;1015773;-60
2023/08/23 01:12:27;;;;;;;26.50;12.50;;;;;;;29.54;52.11;98919.33;67572;1283;1016498;-60
2023/08/23 01:15:29;;;;;;;26.00;11.70;;;;;;;29.51;52.20;98925.73;67615;1283;1016367;-60
2023/08/23 01:18:32;;;;;;;24.60;12.10;;;;;;;29.54;52.40;98923.31;67568;1283;1016097;-60
2023/08/23 01:21:34;;;;;;;25.50;12.40;;;;;;;29.80;51.47;98918.88;67545;1283;1016150;-60
2023/08/23 01:24:36;;;;;;;24.60;12.50;;;;;;;29.45;52.02;98924.39;67539;1283;1016360;-61
2023/08/23 01:27:39;;;;;;;24.70;12.30;;;;;;;28.99;53.24;98933.52;67603;1283;1016816;-59
2023/08/23 01:30:41;;;;;;;26.20;12.60;;;;;;;29.04;52.97;98938.16;67585;1283;1016451;-60
2023/08/23 01:33:44;;;;;;;25.40;11.70;;;;;;;29.13;52.71;98939.35;67537;1282;1016458;-60
2023/08/23 01:36:46;;;;;;;27.50;11.90;;;;;;;29.05;53.19;98933.16;67506;1282;1017920;-60
2023/08/23 01:39:48;;;;;;;25.80;11.40;;;;;;;29.14;52.87;98932.91;67563;1283;1016237;-60
2023/08/23 01:42:51;;;;;;;29.00;11.90;;;;;;;29.11;52.98;98934.95;67537;1283;1016721;-61
2023/08/23 01:45:53;;;;;;;25.40;12.00;;;;;;;29.02;53.39;98939.73;67599;1282;1016662;-60
2023/08/23 01:48:56;;;;;;;26.10;11.70;;;;;;;29.13;53.07;98932.41;67606;1282;1016134;-60
2023/08/23 01:51:58;;;;;;;26.10;11.40;;;;;;;29.70;51.45;98931.59;67564;1283;1016443;-60
2023/08/23 01:55:01;;;;;;;23.80;10.60;;;;;;;29.22;52.44;98934.88;67503;1282;1016518;-60
2023/08/23 01:58:03;;;;;;;23.60;10.80;;;;;;;29.05;52.53;98932.29;67577;1283;1016429;-60
2023/08/23 02:01:05;;;;;;;26.10;10.90;;;;;;;29.04;52.65;98930.52;67560;1283;1016461;-60
2023/08/23 02:04:08;;;;;;;22.20;10.80;;;;;;;29.06;52.62;98936.95;67576;1283;1016485;-60
2023/08/23 02:07:10;;;;;;;23.00;10.70;;;;;;;29.17;52.55;98935.23;67529;1283;1016402;-60
2023/08/23 02:10:13;;;;;;;21.20;9.60;;;;;;;29.04;52.88;98940.94;67495;1283;1016503;-60
2023/08/23 02:13:15;;;;;;;23.50;10.20;;;;;;;29.10;52.65;98936.77;67542;1283;1016575;-60
2023/08/23 02:16:18;;;;;;;24.40;11.10;;;;;;;29.05;52.74;98937.29;67540;1282;1016444;-59
2023/08/23 02:19:20;;;;;;;24.40;11.90;;;;;;;28.78;53.14;98934.59;67585;1282;1016365;-60
2023/08/23 02:22:22;;;;;;;23.50;10.90;;;;;;;28.68;53.73;98939.11;67569;1282;1016717;-60
2023/08/23 02:25:25;;;;;;;23.30;10.90;;;;;;;28.67;53.43;98947.09;67540;1282;1016203;-60
2023/08/23 02:28:27;;;;;;;26.20;11.20;;;;;;;28.62;53.23;98948.25;67556;1282;1016198;-60
2023/08/23 02:31:30;;;;;;;23.20;11.60;;;;;;;28.48;53.82;98950.99;67559;1282;1016469;-60
2023/08/23 02:34:32;;;;;;;25.20;11.40;;;;;;;28.48;53.76;98951.87;67588;1282;1016232;-60
2023/08/23 02:37:34;;;;;;;25.80;11.40;;;;;;;28.46;53.72;98950.79;67552;1283;1016434;-60
2023/08/23 02:40:37;;;;;;;24.50;10.60;;;;;;;28.19;54.19;98951.80;67526;1283;1016152;-60
2023/08/23 02:43:39;;;;;;;23.50;10.20;;;;;;;28.10;54.20;98953.52;67554;1283;1016486;-60
2023/08/23 02:46:42;;;;;;;22.90;9.00;;;;;;;27.89;54.71;98952.57;67577;1282;1016476;-60
2023/08/23 02:49:44;;;;;;;23.10;9.90;;;;;;;27.60;55.23;98954.83;67590;1283;1016397;-60
2023/08/23 02:52:47;;;;;;;22.80;9.40;;;;;;;27.66;54.96;98960.08;67579;1283;1016141;-60
2023/08/23 02:55:49;;;;;;;24.00;9.80;;;;;;;27.58;54.88;98956.73;67551;1283;1016040;-60
2023/08/23 02:58:51;;;;;;;22.90;9.30;;;;;;;27.50;54.91;98949.56;67542;1283;1016167;-60
2023/08/23 03:01:54;;;;;;;24.90;9.30;;;;;;;27.46;54.93;98942.92;67591;1283;1015984;-60
2023/08/23 03:04:57;;;;;;;25.10;9.30;;;;;;;27.45;55.01;98944.58;67581;1283;1016028;-60
2023/08/23 03:07:59;;;;;;;22.80;9.10;;;;;;;27.54;54.87;98939.64;67748;1280;1016489;-60
2023/08/23 03:11:03;;;;;;;26.60;9.20;;;;;;;27.19;55.82;98936.08;67747;1280;1016483;-61
2023/08/23 03:14:05;;;;;;;22.20;8.80;;;;;;;26.93;56.62;98927.45;67748;1280;1016462;-60
2023/08/23 03:17:07;;;;;;;23.80;9.40;;;;;;;26.87;56.48;98927.58;67662;1280;1016352;-60
2023/08/23 03:20:10;;;;;;;21.70;8.20;;;;;;;26.90;56.04;98936.23;67722;1280;1016955;-59
2023/08/23 03:23:12;;;;;;;21.60;9.00;;;;;;;26.71;56.53;98937.74;67756;1280;1018260;-60
2023/08/23 03:26:15;;;;;;;22.70;8.80;;;;;;;26.68;56.85;98936.82;67789;1280;1016337;-60
2023/08/23 03:29:17;;;;;;;22.40;7.90;;;;;;;26.55;56.95;98928.92;67773;1280;1016462;-60
2023/08/23 03:32:20;;;;;;;20.70;8.30;;;;;;;26.63;56.66;98930.23;67720;1280;1018851;-60
2023/08/23 03:35:22;;;;;;;23.70;9.00;;;;;;;26.70;56.43;98935.54;67788;1280;1016233;-60
2023/08/23 03:38:25;;;;;;;22.70;8.80;;;;;;;26.73;56.58;98947.88;67770;1280;1016179;-60
2023/08/23 03:41:27;;;;;;;23.50;8.20;;;;;;;26.89;56.08;98946.50;67788;1280;1019847;-61
2023/08/23 03:44:30;;;;;;;20.80;8.10;;;;;;;26.91;55.91;98945.58;67763;1280;1017005;-61
2023/08/23 03:47:32;;;;;;;21.40;8.20;;;;;;;27.04;55.62;98942.18;67755;1280;1016475;-60
2023/08/23 03:50:36;;;;;;;25.70;8.90;;;;;;;27.16;55.49;98944.85;67761;1280;1016216;-60
2023/08/23 03:53:38;;;;;;;22.70;8.90;;;;;;;27.22;55.03;98947.70;67787;1280;1016387;-60
2023/08/23 03:56:41;;;;;;;24.10;8.30;;;;;;;27.07;55.06;98957.17;67810;1280;1016673;-60
2023/08/23 03:59:43;;;;;;;23.80;8.70;;;;;;;26.98;55.22;98962.33;67824;1280;1016653;-60
2023/08/23 04:02:46;;;;;;;21.40;8.10;;;;;;;26.83;55.48;98965.05;67749;1279;1016532;-60
2023/08/23 04:05:48;;;;;;;21.10;8.10;;;;;;;26.71;55.79;98971.64;67729;1280;1018983;-57
2023/08/23 04:08:50;;;;;;;19.80;8.10;;;;;;;26.71;55.85;98975.67;67788;1279;1016124;-60
2023/08/23 04:11:53;;;;;;;22.20;8.20;;;;;;;26.80;55.75;98976.53;67775;1280;1016444;-60
2023/08/23 04:14:55;;;;;;;23.80;8.00;;;;;;;27.09;54.61;98977.39;67785;1280;1016150;-60
2023/08/23 04:17:58;;;;;;;20.30;8.10;;;;;;;26.81;55.45;98980.39;67746;1279;1016455;-60
2023/08/23 04:21:00;;;;;;;22.00;7.70;;;;;;;26.87;55.10;98982.27;67682;1279;1016286;-60
2023/08/23 04:24:02;;;;;;;19.80;7.20;;;;;;;26.75;55.37;98977.61;67751;1280;1018108;-60
2023/08/23 04:27:05;;;;;;;19.50;7.40;;;;;;;26.86;55.15;98976.86;67790;1279;1016144;-60
2023/08/23 04:30:07;;;;;;;20.90;7.20;;;;;;;27.03;54.56;98981.54;67789;1280;1016337;-60
2023/08/23 04:33:10;;;;;;;19.10;7.00;;;;;;;27.05;54.31;98981.06;67736;1280;1016268;-60
2023/08/23 04:36:12;;;;;;;21.30;7.30;;;;;;;26.96;54.55;98982.06;67721;1279;1016471;-60
2023/08/23 04:39:15;;;;;;;19.90;7.00;;;;;;;27.05;54.40;98994.23;67756;1280;1016487;-60
2023/08/23 04:42:17;;;;;;;19.80;6.70;;;;;;;27.01;54.35;98999.57;67785;1279;1016237;-61
2023/08/23 04:45:20;;;;;;;21.80;7.00;;;;;;;27.00;54.22;98995.02;67753;1280;1016455;-60
2023/08/23 04:48:23;;;;;;;21.50;6.90;;;;;;;27.21;53.61;99002.33;67713;1280;1016469;-61
2023/08/23 04:51:26;;;;;;;21.70;6.40;;;;;;;27.00;54.10;99007.06;67791;1279;1016461;-61
2023/08/23 04:54:29;;;;;;;20.20;6.60;;;;;;;27.37;52.78;99012.63;67760;1280;1016384;-61
2023/08/23 04:57:31;;;;;;;18.20;6.10;;;;;;;27.34;52.64;99015.01;67730;1280;1016630;-61
2023/08/23 05:00:34;;;;;;;21.80;6.10;;;;;;;27.27;52.83;99014.20;67749;1280;1015876;-58
2023/08/23 05:03:36;;;;;;;18.60;6.30;;;;;;;27.09;53.40;99011.27;67746;1280;1018507;-60
2023/08/23 05:06:39;;;;;;;19.80;6.00;;;;;;;27.11;53.50;99015.39;67752;1279;1016540;-61
2023/08/23 05:09:42;;;;;;;21.00;6.00;;;;;;;27.28;52.76;99016.79;67750;1280;1016538;-61
2023/08/23 05:12:44;;;;;;;17.40;6.00;;;;;;;27.03;53.58;99024.81;67740;1280;1017369;-60
2023/08/23 05:15:47;;;;;;;19.30;5.40;;;;;;;27.25;53.27;99024.35;67720;1279;1018172;-60
2023/08/23 05:18:49;;;;;;;18.90;6.00;;;;;;;27.34;53.05;99027.24;67796;1280;1016427;-60
2023/08/23 05:21:52;;;;;;;17.90;5.70;;;;;;;27.33;53.15;99026.69;67779;1279;1018765;-60
2023/08/23 05:24:54;;;;;;;18.80;5.80;;;;;;;27.36;53.30;99025.65;67771;1279;1016419;-60
2023/08/23 05:27:57;;;;;;;19.80;6.30;;;;;;;27.55;53.01;99032.02;67712;1280;1016740;-60
2023/08/23 05:30:59;;;;;;;18.00;5.60;;;;;;;27.59;53.14;99033.31;67784;1279;1016692;-60
2023/08/23 05:34:01;;;;;;;19.90;5.50;;;;;;;28.02;52.56;99030.20;67792;1279;1016513;-60
2023/08/23 05:37:04;;;;;;;15.20;5.20;;;;;;;28.32;51.29;99032.63;67768;1280;1016830;-60
2023/08/23 05:40:07;;;;;;;16.30;4.90;;;;;;;28.33;51.50;99038.03;67713;1279;1016348;-61
2023/08/23 05:43:10;;;;;;;16.30;5.20;;;;;;;28.28;51.45;99040.73;67733;1280;1016352;-61
2023/08/23 05:46:12;;;;;;;19.30;5.60;;;;;;;28.15;51.54;99040.84;67648;1280;1016410;-60
2023/08/23 05:49:15;;;;;;;20.40;5.90;;;;;;;28.03;51.42;99043.59;67711;1280;1016288;-60
2023/08/23 05:52:17;;;;;;;19.50;5.60;;;;;;;28.07;51.91;99045.38;67777;1280;1018061;-60
2023/08/23 05:55:20;;;;;;;17.60;5.40;;;;;;;28.22;51.40;99047.55;67778;1280;1018781;-60
2023/08/23 05:58:22;;;;;;;15.30;5.40;;;;;;;28.26;50.92;99048.64;67747;1280;1016452;-60
2023/08/23 06:01:25;;;;;;;17.00;5.50;;;;;;;28.29;50.77;99043.05;67759;1279;1016605;-60
2023/08/23 06:04:27;;;;;;;21.90;6.40;;;;;;;28.35;50.73;99044.64;67724;1280;1016358;-60
2023/08/23 06:07:30;;;;;;;17.30;6.10;;;;;;;28.55;50.74;99040.94;67782;1280;1016740;-61
2023/08/23 06:10:33;;;;;;;17.30;5.40;;;;;;;28.91;50.04;99047.31;67733;1280;1016383;-60
2023/08/23 06:13:35;;;;;;;20.70;5.70;;;;;;;29.29;48.99;99050.05;67789;1280;1017721;-61
2023/08/23 06:16:37;;;;;;;19.20;5.40;;;;;;;29.51;48.96;99056.33;67772;1280;1016388;-60
2023/08/23 06:19:40;;;;;;;18.20;5.30;;;;;;;30.02;48.12;99052.58;67795;1280;1016452;-60
2023/08/23 06:22:42;;;;;;;17.70;6.00;;;;;;;30.01;47.70;99050.89;67793;1280;1016396;-61
2023/08/23 06:25:45;;;;;;;20.70;5.90;;;;;;;29.88;48.41;99047.28;67742;1280;1016182;-61
2023/08/23 06:28:47;;;;;;;19.80;5.60;;;;;;;30.09;47.97;99046.89;67713;1279;1016242;-60
2023/08/23 06:31:49;;;;;;;18.10;5.30;;;;;;;30.06;47.82;99049.33;67745;1280;1016520;-60
2023/08/23 06:34:53;;;;;;;17.10;5.60;;;;;;;29.93;48.18;99046.30;67767;1280;1018862;-60
2023/08/23 06:37:55;;;;;;;16.80;5.40;;;;;;;30.01;48.34;99050.30;67723;1280;1016799;-61
2023/08/23 06:40:58;;;;;;;19.80;6.00;;;;;;;30.24;47.54;99052.44;67762;1279;1016544;-61
2023/08/23 06:44:00;;;;;;;17.40;5.70;;;;;;;30.36;47.39;99050.17;67796;1280;1016911;-60
2023/08/23 06:47:02;;;;;;;17.00;5.20;;;;;;;30.56;47.30;99049.32;67768;1280;1016384;-60
2023/08/23 06:50:05;;;;;;;15.90;5.20;;;;;;;30.89;46.66;99049.45;67738;1280;1016501;-60
2023/08/23 06:53:07;;;;;;;15.40;5.10;;;;;;;30.93;47.09;99055.30;67724;1279;1016539;-60
2023/08/23 06:56:11;;;;;;;17.80;5.40;;;;;;;31.16;46.53;99055.00;67761;1280;1016187;-60
2023/08/23 06:59:13;;;;;;;16.70;5.60;;;;;;;31.31;45.94;99054.66;67699;1279;1018553;-60
2023/08/23 07:02:16;;;;;;;16.70;5.40;;;;;;;31.44;46.03;99050.28;67727;1280;1016247;-60
2023/08/23 07:05:18;;;;;;;19.70;6.30;;;;;;;31.61;45.51;99052.06;67786;1279;1016483;-60
2023/08/23 07:08:20;;;;;;;17.90;5.50;;;;;;;31.68;45.72;99054.55;67804;1279;1016462;-60
2023/08/23 07:11:23;;;;;;;13.00;4.60;;;;;;;31.79;45.32;99055.73;67757;1280;1016280;-60
2023/08/23 07:14:25;;;;;;;14.90;4.70;;;;;;;31.90;44.38;99057.34;67738;1280;1016674;-60
2023/08/23 07:17:28;;;;;;;14.50;4.30;;;;;;;32.11;44.39;99056.88;67688;1279;1016391;-61
2023/08/23 07:20:30;;;;;;;13.10;4.40;;;;;;;32.42;43.79;99063.23;67728;1280;1016396;-60
2023/08/23 07:23:33;;;;;;;11.10;3.90;;;;;;;32.57;43.25;99064.08;67779;1280;1018646;-60
2023/08/23 07:26:35;;;;;;;13.90;3.80;;;;;;;32.40;43.02;99065.10;67745;1279;1016304;-60
2023/08/23 07:29:38;;;;;;;11.50;4.00;;;;;;;32.52;43.31;99063.35;67719;1280;1016394;-60
2023/08/23 07:32:40;;;;;;;12.00;3.90;;;;;;;32.91;42.81;99069.67;67746;1279;1016907;-60
2023/08/23 07:35:42;;;;;;;15.50;4.30;;;;;;;33.08;42.73;99069.56;67774;1279;1016262;-60
2023/08/23 07:38:45;;;;;;;12.40;3.80;;;;;;;33.03;41.99;99070.07;67799;1279;1016782;-60
2023/08/23 07:41:47;;;;;;;12.60;4.20;;;;;;;32.87;41.99;99074.41;67760;1279;1016487;-60
2023/08/23 07:44:50;;;;;;;12.10;3.70;;;;;;;32.87;41.69;99078.60;67722;1280;1016433;-59
2023/08/23 07:47:52;;;;;;;12.00;3.90;;;;;;;32.85;41.63;99070.84;67704;1279;1016370;-60
2023/08/23 07:50:55;;;;;;;12.10;4.00;;;;;;;32.98;41.17;99070.84;67769;1279;1017097;-61
2023/08/23 07:53:58;;;;;;;12.00;3.70;;;;;;;33.09;41.77;99074.69;67692;1280;1016460;-61
2023/08/23 07:57:01;;;;;;;12.90;3.70;;;;;;;33.33;41.03;99076.30;67742;1279;1016856;-60
2023/08/23 08:00:03;;;;;;;12.10;3.80;;;;;;;33.72;40.89;99080.98;67761;1279;1018525;-61
2023/08/23 08:03:06;;;;;;;15.00;3.80;;;;;;;33.86;39.06;99084.73;67712;1280;1020040;-61
2023/08/23 08:06:08;;;;;;;11.60;3.90;;;;;;;33.74;40.16;99081.26;67744;1279;1016351;-60
2023/08/23 08:09:11;;;;;;;12.80;3.80;;;;;;;33.82;40.29;99086.03;67768;1280;1016801;-60
2023/08/23 08:12:13;;;;;;;12.40;4.10;;;;;;;33.95;39.60;99088.12;67776;1280;1016352;-60
2023/08/23 08:15:16;;;;;;;12.60;3.90;;;;;;;33.66;39.35;99086.79;67743;1280;1016051;-60
2023/08/23 08:18:18;;;;;;;11.20;3.80;;;;;;;33.72;39.61;99083.05;67726;1280;1016182;-61
2023/08/23 08:21:20;;;;;;;12.00;3.80;;;;;;;33.96;39.24;99087.60;67707;1279;1016449;-60
2023/08/23 08:24:23;;;;;;;12.00;3.80;;;;;;;34.33;39.43;99092.10;67773;1279;1018641;-60
2023/08/23 08:27:25;;;;;;;15.40;3.90;;;;;;;34.32;38.48;99092.96;67746;1279;1016385;-61
2023/08/23 08:30:28;;;;;;;13.20;3.90;;;;;;;34.46;38.46;99090.98;67715;1279;1015949;-61
2023/08/23 08:33:30;;;;;;;15.80;4.60;;;;;;;34.66;38.46;99098.11;67698;1280;1016544;-61
2023/08/23 08:36:32;;;;;;;14.20;3.90;;;;;;;34.46;37.93;99102.86;67733;1279;1016448;-60
2023/08/23 08:39:35;;;;;;;13.30;3.80;;;;;;;34.47;38.25;99107.03;67698;1279;1016476;-61
2023/08/23 08:42:37;;;;;;;11.80;3.60;;;;;;;34.81;38.10;99108.41;67803;1279;1016454;-60
2023/08/23 08:45:40;;;;;;;12.40;4.00;;;;;;;34.89;37.59;99111.67;67740;1279;1016180;-60
2023/08/23 08:48:42;;;;;;;13.90;4.00;;;;;;;34.97;37.73;99116.44;67702;1280;1016817;-60
2023/08/23 08:51:45;;;;;;;13.00;4.40;;;;;;;35.11;37.50;99110.94;67748;1279;1018207;-60
2023/08/23 08:54:47;;;;;;;12.10;3.90;;;;;;;35.18;37.37;99116.73;67765;1279;1016322;-60
2023/08/23 08:57:52;;;;;;;14.50;4.30;;;;;;;34.93;36.73;99119.58;67750;1280;1018969;-61
2023/08/23 09:00:54;;;;;;;14.40;4.20;;;;;;;34.89;36.91;99115.70;67681;1279;1017230;-60
2023/08/23 09:03:57;;;;;;;13.80;4.20;;;;;;;34.93;36.42;99116.15;67539;1280;1016522;-60
2023/08/23 09:06:59;;;;;;;13.30;4.20;;;;;;;34.88;36.48;99116.33;67761;1279;1018778;-60
2023/08/23 09:10:01;;;;;;;13.40;4.10;;;;;;;34.78;36.54;99119.13;67795;1280;1016421;-60
2023/08/23 09:13:04;;;;;;;13.50;4.00;;;;;;;34.89;36.88;99110.40;67741;1279;1016569;-61
2023/08/23 09:16:06;;;;;;;13.00;3.90;;;;;;;35.02;36.21;99110.70;67692;1280;1018352;-60
2023/08/23 09:19:09;;;;;;;12.20;4.10;;;;;;;34.82;36.18;99114.16;67687;1279;1016507;-61
2023/08/23 09:22:12;;;;;;;15.40;4.40;;;;;;;34.83;36.12;99115.92;67753;1279;1016148;-61
2023/08/23 09:25:14;;;;;;;14.90;4.20;;;;;;;34.93;36.27;99116.58;67747;1279;1016844;-60
2023/08/23 09:28:17;;;;;;;12.50;4.20;;;;;;;35.26;36.24;99114.18;67711;1279;1016471;-60
2023/08/23 09:31:19;;;;;;;13.10;3.90;;;;;;;35.34;35.94;99112.48;67716;1279;1016370;-61
2023/08/23 09:34:22;;;;;;;11.90;3.90;;;;;;;35.11;35.84;99115.64;67735;1279;1016527;-60
2023/08/23 09:37:24;;;;;;;15.60;4.10;;;;;;;35.15;36.07;99114.05;67777;1280;1016560;-60
2023/08/23 09:40:32;;;;;;;14.60;4.10;;;;;;;35.35;35.65;99122.40;67737;1279;1016118;-61
2023/08/23 09:43:35;;;;;;;13.80;4.20;;;;;;;35.44;35.43;99123.20;67708;1279;1016312;-61
2023/08/23 09:46:39;;;;;;;14.00;4.20;;;;;;;35.63;35.05;99129.31;67693;1279;1016561;-61
2023/08/23 09:49:41;;;;;;;15.00;4.10;;;;;;;36.15;35.33;99126.36;67713;1279;1016757;-61
2023/08/23 09:52:44;;;;;;;14.10;4.30;;;;;;;36.59;35.09;99123.28;67718;1279;1015932;-61
2023/08/23 09:55:50;;;;;;;12.30;4.20;;;;;;;36.80;34.25;99120.33;67739;1279;1016020;-60
2023/08/23 09:58:52;;;;;;;12.00;4.00;;;;;;;36.27;34.20;99120.83;67737;1279;1016293;-61
2023/08/23 10:01:55;;;;;;;13.10;4.30;;;;;;;35.96;34.19;99120.34;67734;1280;1016835;-59
2023/08/23 10:04:57;;;;;;;14.30;4.10;;;;;;;35.77;34.03;99121.17;67679;1279;1016455;-61
2023/08/23 10:08:00;;;;;;;11.30;3.70;;;;;;;35.84;34.23;99114.45;67731;1279;1016465;-61
2023/08/23 10:11:03;;;;;;;14.00;4.10;;;;;;;36.26;34.93;99109.15;67764;1279;1016625;-61
2023/08/23 10:14:05;;;;;;;13.80;4.00;;;;;;;36.32;32.96;99115.70;67770;1277;1016424;-60
2023/08/23 10:17:08;;;;;;;14.00;3.80;;;;;;;36.13;33.42;99114.02;67695;1279;1016193;-61
2023/08/23 10:20:10;;;;;;;18.00;4.60;;;;;;;35.66;33.27;99113.80;67685;1279;1016483;-62
2023/08/23 10:23:13;;;;;;;14.80;4.30;;;;;;;35.01;34.19;99100.04;67761;1279;1016019;-61
2023/08/23 10:26:15;;;;;;;11.00;3.70;;;;;;;35.30;34.42;99099.10;67790;1279;1016521;-61
2023/08/23 10:29:18;;;;;;;16.10;4.20;;;;;;;35.98;34.33;99102.67;67673;1280;1016975;-60
2023/08/23 10:32:20;;;;;;;10.50;4.00;;;;;;;35.84;33.67;99105.11;67674;1279;1016293;-60
2023/08/23 10:35:23;;;;;;;12.90;4.00;;;;;;;35.50;34.13;99103.98;67701;1279;1016299;-60
2023/08/23 10:38:25;;;;;;;13.40;4.50;;;;;;;35.59;34.20;99099.98;67729;1279;1016569;-60
2023/08/23 10:41:28;;;;;;;13.50;4.10;;;;;;;35.78;34.29;99100.89;67746;1279;1016472;-61
2023/08/23 10:44:30;;;;;;;13.70;4.10;;;;;;;36.20;34.42;99090.51;67695;1279;1016374;-60
2023/08/23 10:47:32;;;;;;;15.20;4.30;;;;;;;36.46;33.73;99087.36;67712;1279;1016362;-61
2023/08/23 10:50:35;;;;;;;10.00;4.00;;;;;;;36.38;32.91;99079.91;67711;1279;1016218;-60
2023/08/23 10:53:37;;;;;;;14.20;4.20;;;;;;;35.84;33.49;99088.42;67751;1279;1016388;-60
2023/08/23 10:56:40;;;;;;;12.10;3.90;;;;;;;36.26;33.54;99084.25;67728;1279;1016017;-61
2023/08/23 10:59:42;;;;;;;13.90;4.50;;;;;;;36.38;33.42;99089.52;67691;1279;1016104;-60
2023/08/23 11:02:44;;;;;;;12.50;3.80;;;;;;;36.32;34.00;99086.84;67698;1279;1016397;-60
2023/08/23 11:05:47;;;;;;;13.70;4.00;;;;;;;36.75;32.51;99086.23;67711;1279;1016361;-60
2023/08/23 11:08:49;;;;;;;16.40;4.10;;;;;;;36.79;32.25;99087.30;67708;1279;1016351;-60
2023/08/23 11:11:52;;;;;;;13.90;4.00;;;;;;;35.97;33.04;99085.80;67740;1279;1016366;-61
2023/08/23 11:14:54;;;;;;;12.00;4.10;;;;;;;36.14;33.15;99091.42;67684;1279;1016468;-60
2023/08/23 11:17:57;;;;;;;14.50;4.20;;;;;;;36.28;32.29;99095.04;67683;1279;1016444;-61
2023/08/23 11:20:59;;;;;;;13.00;4.10;;;;;;;36.21;32.31;99092.36;67720;1279;1016315;-60
2023/08/23 11:24:03;;;;;;;13.10;3.90;;;;;;;36.24;32.31;99093.52;67727;1279;1016200;-60
2023/08/23 11:27:06;;;;;;;15.60;4.00;;;;;;;36.37;32.69;99093.33;67713;1279;1016626;-61
2023/08/23 11:30:08;;;;;;;14.50;4.00;;;;;;;36.92;32.34;99093.61;67713;1279;1016428;-60
2023/08/23 11:33:11;;;;;;;10.70;3.90;;;;;;;37.38;31.90;99091.17;67662;1257;1016447;-60
2023/08/23 11:36:13;;;;;;;12.60;4.00;;;;;;;36.97;31.18;99094.86;67711;1279;1017324;-61
2023/08/23 11:39:16;;;;;;;13.10;4.00;;;;;;;36.33;31.93;99095.68;67745;1280;1016783;-60
2023/08/23 11:42:18;;;;;;;13.40;4.00;;;;;;;36.11;32.67;99100.34;67685;1279;1016404;-61
2023/08/23 11:45:20;;;;;;;13.50;4.00;;;;;;;36.63;32.19;99089.99;67657;1279;1017967;-61
2023/08/23 11:48:24;;;;;;;11.60;3.90;;;;;;;36.90;31.45;99098.14;67669;1279;1016487;-60
2023/08/23 11:51:26;;;;;;;15.40;4.00;;;;;;;36.40;31.58;99108.88;67706;1279;1016732;-61
2023/08/23 11:54:28;;;;;;;13.30;4.10;;;;;;;36.30;31.48;99102.53;67679;1279;1016390;-60
2023/08/23 11:57:31;;;;;;;13.10;3.70;;;;;;;36.85;31.15;99101.36;67661;1279;1017299;-61
2023/08/23 12:00:34;;;;;;;15.60;4.20;;;;;;;37.16;30.80;99105.23;67707;1279;1016451;-61
2023/08/23 12:03:36;;;;;;;11.40;4.00;;;;;;;36.93;30.17;99099.77;67731;1279;1016424;-60
2023/08/23 12:06:39;;;;;;;12.50;4.00;;;;;;;36.37;31.01;99102.50;67644;1279;1016496;-60
2023/08/23 12:09:41;;;;;;;12.50;4.00;;;;;;;36.19;31.55;99100.54;67669;1279;1016245;-60
2023/08/23 12:12:43;;;;;;;12.80;3.60;;;;;;;36.50;31.56;99101.06;67744;1279;1016929;-61
2023/08/23 12:15:46;;;;;;;12.90;3.50;;;;;;;36.21;30.67;99102.30;67725;1279;1016178;-60
2023/08/23 12:18:49;;;;;;;10.60;3.60;;;;;;;36.23;30.95;99096.33;67714;1279;1017720;-61
2023/08/23 12:21:52;;;;;;;10.40;3.80;;;;;;;36.64;30.63;99090.00;67735;1279;1016412;-61
2023/08/23 12:24:54;;;;;;;11.40;3.40;;;;;;;37.09;30.85;99087.25;67719;1279;1017406;-60
2023/08/23 12:27:57;;;;;;;11.20;3.70;;;;;;;37.61;30.28;99085.52;67682;1279;1016578;-60
2023/08/23 12:30:59;;;;;;;13.10;3.60;;;;;;;37.26;29.70;99088.17;67675;1279;1016358;-60
2023/08/23 12:34:02;;;;;;;10.00;3.60;;;;;;;36.60;30.48;99087.94;67720;1279;1016235;-60
2023/08/23 12:37:04;;;;;;;15.40;3.50;;;;;;;36.14;31.05;99093.06;67683;1280;1016690;-60
2023/08/23 12:40:09;;;;;;;12.00;3.50;;;;;;;36.11;30.82;99085.38;67676;1279;1017823;-61
2023/08/23 12:43:12;;;;;;;10.40;3.60;;;;;;;36.34;31.19;99085.45;67738;1279;1016571;-60
2023/08/23 12:46:14;;;;;;;11.30;3.50;;;;;;;36.70;30.67;99082.41;67756;1279;1016724;-60
2023/08/23 12:49:17;;;;;;;13.20;3.90;;;;;;;37.11;29.73;99078.52;67732;1279;1016210;-61
2023/08/23 12:52:19;;;;;;;11.50;3.50;;;;;;;37.36;28.84;99071.76;67671;1279;1016471;-61
2023/08/23 12:55:22;;;;;;;11.30;3.20;;;;;;;37.63;28.94;99060.86;67693;1279;1016891;-60
2023/08/23 12:58:24;;;;;;;9.60;3.20;;;;;;;37.44;29.29;99070.16;67734;1279;1016180;-60
2023/08/23 13:01:27;;;;;;;11.50;2.70;;;;;;;37.11;28.47;99074.46;67750;1279;1016273;-60
2023/08/23 13:04:29;;;;;;;10.90;3.10;;;;;;;36.76;28.43;99079.70;67680;1279;1018649;-60
2023/08/23 13:07:31;;;;;;;9.10;3.00;;;;;;;37.08;28.45;99076.84;67678;1279;1016520;-61
2023/08/23 13:10:34;;;;;;;11.30;3.00;;;;;;;37.57;27.73;99072.20;67715;1279;1016556;-60
2023/08/23 13:13:36;;;;;;;7.00;2.80;;;;;;;38.02;27.77;99067.84;67731;1279;1016407;-60
2023/08/23 13:16:39;;;;;;;10.30;2.50;;;;;;;38.11;26.11;99063.54;67702;1279;1016406;-60
2023/08/23 13:19:41;;;;;;;8.10;2.50;;;;;;;37.84;27.26;99066.08;67678;1279;1016190;-61
2023/08/23 13:22:43;;;;;;;9.30;2.80;;;;;;;37.56;26.60;99059.23;67712;1279;1016499;-61
2023/08/23 13:25:46;;;;;;;9.10;2.40;;;;;;;37.77;25.65;99061.59;67682;1279;1016692;-60
2023/08/23 13:28:48;;;;;;;9.00;2.40;;;;;;;37.16;25.10;99067.28;67698;1279;1016566;-60
2023/08/23 13:31:51;;;;;;;10.20;2.60;;;;;;;36.84;25.03;99069.33;67737;1279;1016484;-60
2023/08/23 13:34:53;;;;;;;6.50;2.30;;;;;;;36.65;25.44;99063.67;67744;1279;1016835;-58
2023/08/23 13:37:56;;;;;;;10.20;2.90;;;;;;;36.62;26.14;99062.67;67692;1279;1016498;-60
2023/08/23 13:40:58;;;;;;;6.70;2.20;;;;;;;36.90;26.28;99060.73;67698;1279;1016696;-60
2023/08/23 13:44:00;;;;;;;7.00;2.40;;;;;;;37.20;25.70;99056.64;67728;1279;1017727;-61
2023/08/23 13:47:03;;;;;;;6.90;2.50;;;;;;;37.47;26.27;99055.63;67728;1279;1016119;-60
2023/08/23 13:50:05;;;;;;;9.30;2.70;;;;;;;37.49;25.69;99058.55;67761;1279;1016230;-60